sensor_id;sensor_type;location;lat;lon;timestamp;pressure;altitude;pressure_sealevel;temperature;humidity
26083;BME280;13848;49.018;12.078;2023-06-10T00:00:42;97318.38;;;18.71;62.31
26083;BME280;13848;49.018;12.078;2023-06-10T00:03:08;97317.84;;;18.69;62.22
26083;BME280;13848;49.018;12.078;2023-06-10T00:05:35;97318.66;;;18.70;61.78
26083;BME280;13848;49.018;12.078;2023-06-10T00:08:02;97312.34;;;18.74;62.18
26083;BME280;13848;49.018;12.078;2023-06-10T00:10:28;97321.66;;;18.73;61.63
26083;BME280;13848;49.018;12.078;2023-06-10T00:12:54;97321.09;;;18.71;61.88
26083;BME280;13848;49.018;12.078;2023-06-10T00:15:20;97324.41;;;18.63;61.98
26083;BME280;13848;49.018;12.078;2023-06-10T00:17:45;97327.44;;;18.61;62.56
26083;BME280;13848;49.018;12.078;2023-06-10T00:20:11;97325.50;;;18.62;62.26
26083;BME280;13848;49.018;12.078;2023-06-10T00:22:39;97315.66;;;18.61;62.27
26083;BME280;13848;49.018;12.078;2023-06-10T00:25:05;97324.13;;;18.65;62.25
26083;BME280;13848;49.018;12.078;2023-06-10T00:27:31;97320.88;;;18.63;62.17
26083;BME280;13848;49.018;12.078;2023-06-10T00:29:57;97318.72;;;18.54;62.30
26083;BME280;13848;49.018;12.078;2023-06-10T00:32:23;97331.53;;;18.59;62.21
26083;BME280;13848;49.018;12.078;2023-06-10T00:34:49;97320.59;;;18.59;62.39
26083;BME280;13848;49.018;12.078;2023-06-10T00:37:15;97323.63;;;18.57;62.46
26083;BME280;13848;49.018;12.078;2023-06-10T00:39:42;97317.91;;;18.49;62.40
26083;BME280;13848;49.018;12.078;2023-06-10T00:42:08;97319.59;;;18.45;62.86
26083;BME280;13848;49.018;12.078;2023-06-10T00:44:34;97316.91;;;18.40;62.94
26083;BME280;13848;49.018;12.078;2023-06-10T00:47:00;97310.34;;;18.35;63.05
26083;BME280;13848;49.018;12.078;2023-06-10T00:49:27;97315.25;;;18.39;63.13
26083;BME280;13848;49.018;12.078;2023-06-10T00:51:53;97316.91;;;18.40;63.02
26083;BME280;13848;49.018;12.078;2023-06-10T00:54:19;97326.22;;;18.28;63.18
26083;BME280;13848;49.018;12.078;2023-06-10T00:56:47;97324.59;;;18.27;63.24
26083;BME280;13848;49.018;12.078;2023-06-10T00:59:13;97317.78;;;18.25;63.51
26083;BME280;13848;49.018;12.078;2023-06-10T01:01:39;97309.31;;;18.26;63.58
26083;BME280;13848;49.018;12.078;2023-06-10T01:04:05;97316.97;;;18.19;63.43
26083;BME280;13848;49.018;12.078;2023-06-10T01:06:36;97311.03;;;18.02;64.38
26083;BME280;13848;49.018;12.078;2023-06-10T01:09:12;97306.69;;;18.06;63.96
26083;BME280;13848;49.018;12.078;2023-06-10T01:11:43;97302.31;;;18.10;64.15
26083;BME280;13848;49.018;12.078;2023-06-10T01:14:13;97307.19;;;18.08;64.26
26083;BME280;13848;49.018;12.078;2023-06-10T01:16:39;97309.66;;;18.10;64.46
26083;BME280;13848;49.018;12.078;2023-06-10T01:19:05;97309.41;;;18.06;64.47
26083;BME280;13848;49.018;12.078;2023-06-10T01:21:32;97321.44;;;18.00;64.76
26083;BME280;13848;49.018;12.078;2023-06-10T01:23:58;97313.78;;;17.97;64.73
26083;BME280;13848;49.018;12.078;2023-06-10T01:26:28;97327.19;;;17.88;64.83
26083;BME280;13848;49.018;12.078;2023-06-10T01:28:59;97322.88;;;17.77;65.46
26083;BME280;13848;49.018;12.078;2023-06-10T01:31:33;97319.31;;;17.81;65.31
26083;BME280;13848;49.018;12.078;2023-06-10T01:34:08;97320.66;;;17.84;64.97
26083;BME280;13848;49.018;12.078;2023-06-10T01:36:37;97316.59;;;17.81;65.37
26083;BME280;13848;49.018;12.078;2023-06-10T01:39:04;97317.94;;;17.79;65.26
26083;BME280;13848;49.018;12.078;2023-06-10T01:41:31;97325.59;;;17.77;65.51
26083;BME280;13848;49.018;12.078;2023-06-10T01:43:58;97319.88;;;17.73;65.72
26083;BME280;13848;49.018;12.078;2023-06-10T01:46:24;97321.53;;;17.74;65.79
26083;BME280;13848;49.018;12.078;2023-06-10T01:48:50;97325.31;;;17.78;65.59
26083;BME280;13848;49.018;12.078;2023-06-10T01:51:16;97318.22;;;17.67;66.08
26083;BME280;13848;49.018;12.078;2023-06-10T01:53:43;97316.06;;;17.64;66.17
26083;BME280;13848;49.018;12.078;2023-06-10T01:56:09;97323.66;;;17.62;66.14
26083;BME280;13848;49.018;12.078;2023-06-10T01:58:35;97325.34;;;17.63;65.95
26083;BME280;13848;49.018;12.078;2023-06-10T02:01:01;97330.25;;;17.46;66.57
26083;BME280;13848;49.018;12.078;2023-06-10T02:03:27;97328.59;;;17.45;66.62
26083;BME280;13848;49.018;12.078;2023-06-10T02:05:53;97332.72;;;17.52;66.47
26083;BME280;13848;49.018;12.078;2023-06-10T02:08:19;97322.63;;;17.48;66.62
26083;BME280;13848;49.018;12.078;2023-06-10T02:10:46;97329.69;;;17.44;66.49
26083;BME280;13848;49.018;12.078;2023-06-10T02:13:12;97332.44;;;17.44;66.70
26083;BME280;13848;49.018;12.078;2023-06-10T02:15:38;97342.81;;;17.47;66.99
26083;BME280;13848;49.018;12.078;2023-06-10T02:18:04;97332.44;;;17.44;66.48
26083;BME280;13848;49.018;12.078;2023-06-10T02:20:30;97332.44;;;17.39;66.83
26083;BME280;13848;49.018;12.078;2023-06-10T02:22:56;97327.00;;;17.34;67.00
26083;BME280;13848;49.018;12.078;2023-06-10T02:25:22;97334.09;;;17.35;66.93
26083;BME280;13848;49.018;12.078;2023-06-10T02:27:49;97333.28;;;17.34;67.33
26083;BME280;13848;49.018;12.078;2023-06-10T02:30:28;97338.72;;;17.34;67.11
26083;BME280;13848;49.018;12.078;2023-06-10T02:32:53;97327.00;;;17.34;67.27
26083;BME280;13848;49.018;12.078;2023-06-10T02:35:19;97327.81;;;17.34;67.46
26083;BME280;13848;49.018;12.078;2023-06-10T02:37:45;97336.81;;;17.29;67.22
26083;BME280;13848;49.018;12.078;2023-06-10T02:40:11;97331.38;;;17.29;67.50
26083;BME280;13848;49.018;12.078;2023-06-10T02:42:37;97337.91;;;17.18;67.84
26083;BME280;13848;49.018;12.078;2023-06-10T02:45:06;97342.81;;;17.16;68.16
26083;BME280;13848;49.018;12.078;2023-06-10T02:47:32;97333.53;;;17.07;68.20
26083;BME280;13848;49.018;12.078;2023-06-10T02:49:58;97337.38;;;17.11;67.99
26083;BME280;13848;49.018;12.078;2023-06-10T02:52:24;97338.97;;;16.97;68.38
26083;BME280;13848;49.018;12.078;2023-06-10T02:54:50;97334.63;;;17.01;68.82
26083;BME280;13848;49.018;12.078;2023-06-10T02:57:16;97342.78;;;16.96;68.18
26083;BME280;13848;49.018;12.078;2023-06-10T02:59:42;97334.59;;;16.81;69.09
26083;BME280;13848;49.018;12.078;2023-06-10T03:02:09;97331.88;;;16.75;69.32
26083;BME280;13848;49.018;12.078;2023-06-10T03:04:35;97338.16;;;16.71;69.57
26083;BME280;13848;49.018;12.078;2023-06-10T03:07:01;97334.88;;;16.84;69.22
26083;BME280;13848;49.018;12.078;2023-06-10T03:09:27;97343.34;;;16.83;69.32
26083;BME280;13848;49.018;12.078;2023-06-10T03:11:53;97341.44;;;16.88;69.44
26083;BME280;13848;49.018;12.078;2023-06-10T03:14:18;97335.72;;;16.95;68.79
26083;BME280;13848;49.018;12.078;2023-06-10T03:16:44;97336.25;;;16.92;69.03
26083;BME280;13848;49.018;12.078;2023-06-10T03:19:12;97340.06;;;16.91;69.21
26083;BME280;13848;49.018;12.078;2023-06-10T03:21:37;97340.03;;;16.81;69.59
26083;BME280;13848;49.018;12.078;2023-06-10T03:24:04;97338.69;;;16.83;69.57
26083;BME280;13848;49.018;12.078;2023-06-10T03:26:30;97338.41;;;16.80;69.35
26083;BME280;13848;49.018;12.078;2023-06-10T03:28:56;97341.69;;;16.92;69.23
26083;BME280;13848;49.018;12.078;2023-06-10T03:31:22;97337.63;;;16.89;69.43
26083;BME280;13848;49.018;12.078;2023-06-10T03:33:48;97338.16;;;16.86;69.68
26083;BME280;13848;49.018;12.078;2023-06-10T03:36:15;97339.81;;;16.87;69.59
26083;BME280;13848;49.018;12.078;2023-06-10T03:38:41;97342.25;;;16.89;69.55
26083;BME280;13848;49.018;12.078;2023-06-10T03:41:07;97339.25;;;16.85;69.78
26083;BME280;13848;49.018;12.078;2023-06-10T03:43:33;97337.59;;;16.79;70.14
26083;BME280;13848;49.018;12.078;2023-06-10T03:45:59;97334.88;;;16.84;69.71
26083;BME280;13848;49.018;12.078;2023-06-10T03:48:25;97343.34;;;16.83;69.78
26083;BME280;13848;49.018;12.078;2023-06-10T03:50:50;97335.69;;;16.85;69.96
26083;BME280;13848;49.018;12.078;2023-06-10T03:53:18;97349.03;;;16.81;70.13
26083;BME280;13848;49.018;12.078;2023-06-10T03:55:44;97350.41;;;16.79;70.30
26083;BME280;13848;49.018;12.078;2023-06-10T03:58:10;97351.50;;;16.83;70.52
26083;BME280;13848;49.018;12.078;2023-06-10T04:00:36;97348.50;;;16.84;70.55
26083;BME280;13848;49.018;12.078;2023-06-10T04:03:01;97353.13;;;16.79;70.58
26083;BME280;13848;49.018;12.078;2023-06-10T04:05:27;97354.22;;;16.83;70.60
26083;BME280;13848;49.018;12.078;2023-06-10T04:07:53;97356.97;;;16.88;70.55
26083;BME280;13848;49.018;12.078;2023-06-10T04:10:21;97350.97;;;16.91;70.64
26083;BME280;13848;49.018;12.078;2023-06-10T04:12:47;97353.16;;;16.89;70.28
26083;BME280;13848;49.018;12.078;2023-06-10T04:15:12;97360.50;;;16.93;70.67
26083;BME280;13848;49.018;12.078;2023-06-10T04:17:38;97358.84;;;16.92;70.51
26083;BME280;13848;49.018;12.078;2023-06-10T04:20:06;97361.88;;;17.01;70.56
26083;BME280;13848;49.018;12.078;2023-06-10T04:22:32;97360.22;;;17.10;70.46
26083;BME280;13848;49.018;12.078;2023-06-10T04:24:58;97367.59;;;17.15;70.62
26083;BME280;13848;49.018;12.078;2023-06-10T04:27:25;97362.44;;;17.18;70.37
26083;BME280;13848;49.018;12.078;2023-06-10T04:29:51;97359.16;;;17.26;70.21
26083;BME280;13848;49.018;12.078;2023-06-10T04:32:17;97357.00;;;17.28;70.52
26083;BME280;13848;49.018;12.078;2023-06-10T04:34:43;97368.44;;;17.46;70.04
26083;BME280;13848;49.018;12.078;2023-06-10T04:37:09;97358.06;;;17.53;70.21
26083;BME280;13848;49.018;12.078;2023-06-10T04:39:35;97354.22;;;17.59;69.99
26083;BME280;13848;49.018;12.078;2023-06-10T04:42:01;97362.41;;;17.54;69.64
26083;BME280;13848;49.018;12.078;2023-06-10T04:44:28;97367.31;;;17.57;69.96
26083;BME280;13848;49.018;12.078;2023-06-10T04:46:54;97364.31;;;17.74;69.61
26083;BME280;13848;49.018;12.078;2023-06-10T04:49:20;97355.56;;;17.82;69.38
26083;BME280;13848;49.018;12.078;2023-06-10T04:51:46;97362.69;;;17.73;69.53
26083;BME280;13848;49.018;12.078;2023-06-10T04:54:12;97360.22;;;17.81;69.30
26083;BME280;13848;49.018;12.078;2023-06-10T04:56:38;97367.31;;;17.83;69.75
26083;BME280;13848;49.018;12.078;2023-06-10T04:59:04;97368.94;;;17.78;70.28
26083;BME280;13848;49.018;12.078;2023-06-10T05:01:31;97370.81;;;17.98;69.62
26083;BME280;13848;49.018;12.078;2023-06-10T05:03:57;97368.91;;;18.04;69.30
26083;BME280;13848;49.018;12.078;2023-06-10T05:06:23;97359.84;;;18.14;69.43
26083;BME280;13848;49.018;12.078;2023-06-10T05:08:49;97370.44;;;18.20;69.20
26083;BME280;13848;49.018;12.078;2023-06-10T05:11:15;97372.09;;;18.26;69.19
26083;BME280;13848;49.018;12.078;2023-06-10T05:13:41;97368.53;;;18.26;68.80
26083;BME280;13848;49.018;12.078;2023-06-10T05:16:07;97366.56;;;18.37;68.89
26083;BME280;13848;49.018;12.078;2023-06-10T05:18:35;97373.06;;;18.51;68.72
26083;BME280;13848;49.018;12.078;2023-06-10T05:21:01;97369.25;;;18.52;68.62
26083;BME280;13848;49.018;12.078;2023-06-10T05:23:26;97372.00;;;18.47;68.98
26083;BME280;13848;49.018;12.078;2023-06-10T05:25:52;97366.47;;;18.62;68.85
26083;BME280;13848;49.018;12.078;2023-06-10T05:28:18;97364.75;;;18.81;68.12
26083;BME280;13848;49.018;12.078;2023-06-10T05:30:44;97371.81;;;18.87;68.14
26083;BME280;13848;49.018;12.078;2023-06-10T05:33:10;97369.34;;;18.91;68.08
26083;BME280;13848;49.018;12.078;2023-06-10T05:35:37;97372.09;;;18.86;67.93
26083;BME280;13848;49.018;12.078;2023-06-10T05:38:03;97372.81;;;19.02;67.91
26083;BME280;13848;49.018;12.078;2023-06-10T05:40:29;97374.34;;;19.13;67.65
26083;BME280;13848;49.018;12.078;2023-06-10T05:42:55;97368.38;;;19.11;67.22
26083;BME280;13848;49.018;12.078;2023-06-10T05:45:21;97375.44;;;19.17;67.52
26083;BME280;13848;49.018;12.078;2023-06-10T05:47:47;97385.16;;;19.33;66.95
26083;BME280;13848;49.018;12.078;2023-06-10T05:50:13;97372.66;;;19.22;67.02
26083;BME280;13848;49.018;12.078;2023-06-10T05:52:40;97380.19;;;19.35;67.12
26083;BME280;13848;49.018;12.078;2023-06-10T05:55:07;97376.88;;;19.44;66.69
26083;BME280;13848;49.018;12.078;2023-06-10T05:57:33;97376.34;;;19.36;66.67
26083;BME280;13848;49.018;12.078;2023-06-10T05:59:59;97372.59;;;19.32;66.43
26083;BME280;13848;49.018;12.078;2023-06-10T06:02:25;97366.75;;;19.44;66.51
26083;BME280;13848;49.018;12.078;2023-06-10T06:04:51;97370.22;;;19.55;66.10
26083;BME280;13848;49.018;12.078;2023-06-10T06:07:17;97366.94;;;19.53;66.05
26083;BME280;13848;49.018;12.078;2023-06-10T06:09:44;97368.53;;;19.59;65.43
26083;BME280;13848;49.018;12.078;2023-06-10T06:12:10;97368.16;;;19.71;65.68
26083;BME280;13848;49.018;12.078;2023-06-10T06:14:38;97366.00;;;19.97;65.78
26083;BME280;13848;49.018;12.078;2023-06-10T06:17:04;97362.84;;;20.08;65.06
26083;BME280;13848;49.018;12.078;2023-06-10T06:19:30;97367.41;;;20.18;65.03
26083;BME280;13848;49.018;12.078;2023-06-10T06:21:56;97359.09;;;20.23;64.63
26083;BME280;13848;49.018;12.078;2023-06-10T06:24:22;97370.06;;;20.23;64.40
26083;BME280;13848;49.018;12.078;2023-06-10T06:26:49;97362.34;;;20.06;65.15
26083;BME280;13848;49.018;12.078;2023-06-10T06:29:15;97364.13;;;20.16;64.78
26083;BME280;13848;49.018;12.078;2023-06-10T06:31:41;97362.59;;;20.05;64.43
26083;BME280;13848;49.018;12.078;2023-06-10T06:34:07;97362.97;;;20.22;64.67
26083;BME280;13848;49.018;12.078;2023-06-10T06:36:33;97360.16;;;20.27;63.80
26083;BME280;13848;49.018;12.078;2023-06-10T06:38:59;97369.94;;;20.33;63.79
26083;BME280;13848;49.018;12.078;2023-06-10T06:41:26;97363.91;;;20.36;63.98
26083;BME280;13848;49.018;12.078;2023-06-10T06:43:53;97365.06;;;20.54;63.54
26083;BME280;13848;49.018;12.078;2023-06-10T06:46:19;97372.25;;;20.69;62.81
26083;BME280;13848;49.018;12.078;2023-06-10T06:48:45;97379.66;;;20.68;63.00
26083;BME280;13848;49.018;12.078;2023-06-10T06:51:11;97375.53;;;20.71;62.74
26083;BME280;13848;49.018;12.078;2023-06-10T06:53:37;97371.25;;;20.84;62.13
26083;BME280;13848;49.018;12.078;2023-06-10T06:56:03;97374.88;;;20.98;62.57
26083;BME280;13848;49.018;12.078;2023-06-10T06:58:29;97378.84;;;20.87;62.15
26083;BME280;13848;49.018;12.078;2023-06-10T07:00:56;97377.75;;;21.07;62.39
26083;BME280;13848;49.018;12.078;2023-06-10T07:03:22;97377.81;;;21.39;62.63
26083;BME280;13848;49.018;12.078;2023-06-10T07:05:48;97379.19;;;21.56;61.58
26083;BME280;13848;49.018;12.078;2023-06-10T07:08:14;97383.06;;;21.55;60.99
26083;BME280;13848;49.018;12.078;2023-06-10T07:10:42;97382.91;;;21.78;60.68
26083;BME280;13848;49.018;12.078;2023-06-10T07:13:08;97390.44;;;21.73;60.12
26083;BME280;13848;49.018;12.078;2023-06-10T07:15:34;97384.78;;;21.50;59.29
26083;BME280;13848;49.018;12.078;2023-06-10T07:18:01;97379.09;;;21.28;58.84
26083;BME280;13848;49.018;12.078;2023-06-10T07:20:27;97386.13;;;21.53;59.20
26083;BME280;13848;49.018;12.078;2023-06-10T07:22:53;97385.50;;;21.56;58.59
26083;BME280;13848;49.018;12.078;2023-06-10T07:25:19;97389.44;;;21.83;58.50
26083;BME280;13848;49.018;12.078;2023-06-10T07:27:45;97390.63;;;21.63;56.99
26083;BME280;13848;49.018;12.078;2023-06-10T07:30:12;97390.66;;;21.76;56.94
26083;BME280;13848;49.018;12.078;2023-06-10T07:32:38;97398.41;;;21.88;57.55
26083;BME280;13848;49.018;12.078;2023-06-10T07:35:08;97397.59;;;22.01;56.76
26083;BME280;13848;49.018;12.078;2023-06-10T07:37:35;97392.09;;;21.88;55.29
26083;BME280;13848;49.018;12.078;2023-06-10T07:40:01;97392.50;;;21.95;55.58
26083;BME280;13848;49.018;12.078;2023-06-10T07:42:27;97393.09;;;21.78;55.67
26083;BME280;13848;49.018;12.078;2023-06-10T07:44:53;97396.34;;;21.80;56.31
26083;BME280;13848;49.018;12.078;2023-06-10T07:47:19;97387.91;;;22.23;55.43
26083;BME280;13848;49.018;12.078;2023-06-10T07:49:44;97389.84;;;22.22;55.45
26083;BME280;13848;49.018;12.078;2023-06-10T07:52:12;97402.50;;;22.04;55.55
26083;BME280;13848;49.018;12.078;2023-06-10T07:54:38;97393.00;;;22.16;55.21
26083;BME280;13848;49.018;12.078;2023-06-10T07:57:04;97389.03;;;22.22;54.67
26083;BME280;13848;49.018;12.078;2023-06-10T07:59:30;97388.66;;;21.96;55.04
26083;BME280;13848;49.018;12.078;2023-06-10T08:01:56;97389.38;;;22.01;55.36
26083;BME280;13848;49.018;12.078;2023-06-10T08:04:22;97405.34;;;21.99;55.76
26083;BME280;13848;49.018;12.078;2023-06-10T08:06:48;97402.19;;;21.92;55.18
26083;BME280;13848;49.018;12.078;2023-06-10T08:09:16;97396.94;;;21.77;55.81
26083;BME280;13848;49.018;12.078;2023-06-10T08:11:42;97401.47;;;22.00;56.09
26083;BME280;13848;49.018;12.078;2023-06-10T08:14:07;97391.47;;;22.10;55.26
26083;BME280;13848;49.018;12.078;2023-06-10T08:16:33;97400.69;;;22.14;55.92
26083;BME280;13848;49.018;12.078;2023-06-10T08:18:59;97405.78;;;21.74;55.08
26083;BME280;13848;49.018;12.078;2023-06-10T08:21:25;97404.47;;;21.85;55.64
26083;BME280;13848;49.018;12.078;2023-06-10T08:23:52;97410.19;;;21.89;55.25
26083;BME280;13848;49.018;12.078;2023-06-10T08:26:20;97416.00;;;22.01;54.91
26083;BME280;13848;49.018;12.078;2023-06-10T08:28:45;97408.75;;;22.24;54.29
26083;BME280;13848;49.018;12.078;2023-06-10T08:31:11;97417.53;;;22.67;53.92
26083;BME280;13848;49.018;12.078;2023-06-10T08:33:37;97413.13;;;22.66;53.23
26083;BME280;13848;49.018;12.078;2023-06-10T08:36:03;97419.25;;;22.36;52.67
26083;BME280;13848;49.018;12.078;2023-06-10T08:38:29;97422.06;;;22.17;53.24
26083;BME280;13848;49.018;12.078;2023-06-10T08:40:58;97411.41;;;21.96;53.27
26083;BME280;13848;49.018;12.078;2023-06-10T08:43:32;97410.19;;;22.21;54.05
26083;BME280;13848;49.018;12.078;2023-06-10T08:46:00;97404.78;;;22.85;53.25
26083;BME280;13848;49.018;12.078;2023-06-10T08:48:29;97407.03;;;23.19;53.35
26083;BME280;13848;49.018;12.078;2023-06-10T08:50:56;97407.81;;;22.97;52.11
26083;BME280;13848;49.018;12.078;2023-06-10T08:53:23;97407.84;;;22.70;52.18
26083;BME280;13848;49.018;12.078;2023-06-10T08:55:51;97401.31;;;22.66;52.77
26083;BME280;13848;49.018;12.078;2023-06-10T08:58:17;97412.72;;;22.59;52.91
26083;BME280;13848;49.018;12.078;2023-06-10T09:00:44;97400.91;;;22.72;52.77
26083;BME280;13848;49.018;12.078;2023-06-10T09:03:11;97398.16;;;22.86;52.61
26083;BME280;13848;49.018;12.078;2023-06-10T09:05:37;97403.84;;;23.03;52.81
26083;BME280;13848;49.018;12.078;2023-06-10T09:08:05;97402.13;;;22.94;51.58
26083;BME280;13848;49.018;12.078;2023-06-10T09:10:32;97406.97;;;23.10;51.92
26083;BME280;13848;49.018;12.078;2023-06-10T09:12:58;97400.75;;;23.41;52.85
26083;BME280;13848;49.018;12.078;2023-06-10T09:15:24;97411.38;;;23.34;52.29
26083;BME280;13848;49.018;12.078;2023-06-10T09:17:51;97404.97;;;23.25;51.35
26083;BME280;13848;49.018;12.078;2023-06-10T09:20:18;97409.22;;;23.08;51.51
26083;BME280;13848;49.018;12.078;2023-06-10T09:22:44;97415.28;;;23.19;51.41
26083;BME280;13848;49.018;12.078;2023-06-10T09:25:12;97408.75;;;23.29;51.36
26083;BME280;13848;49.018;12.078;2023-06-10T09:27:45;97406.38;;;23.14;51.89
26083;BME280;13848;49.018;12.078;2023-06-10T09:30:23;97404.72;;;23.13;51.36
26083;BME280;13848;49.018;12.078;2023-06-10T09:32:50;97400.94;;;23.45;51.65
26083;BME280;13848;49.018;12.078;2023-06-10T09:35:17;97406.53;;;23.76;51.63
26083;BME280;13848;49.018;12.078;2023-06-10T09:37:44;97418.00;;;23.69;51.53
26083;BME280;13848;49.018;12.078;2023-06-10T09:40:11;97406.41;;;23.81;50.37
26083;BME280;13848;49.018;12.078;2023-06-10T09:42:38;97400.25;;;24.06;50.01
26083;BME280;13848;49.018;12.078;2023-06-10T09:45:06;97405.94;;;24.10;49.84
26083;BME280;13848;49.018;12.078;2023-06-10T09:47:32;97403.91;;;23.71;49.70
26083;BME280;13848;49.018;12.078;2023-06-10T09:49:58;97407.63;;;23.52;50.04
26083;BME280;13848;49.018;12.078;2023-06-10T09:52:27;97411.63;;;23.24;49.69
26083;BME280;13848;49.018;12.078;2023-06-10T09:54:54;97413.91;;;23.08;50.09
26083;BME280;13848;49.018;12.078;2023-06-10T09:57:25;97413.06;;;23.07;50.19
26083;BME280;13848;49.018;12.078;2023-06-10T09:59:52;97410.38;;;22.80;50.82
26083;BME280;13848;49.018;12.078;2023-06-10T10:02:18;97411.06;;;22.86;50.82
26083;BME280;13848;49.018;12.078;2023-06-10T10:04:44;97403.53;;;22.77;51.16
26083;BME280;13848;49.018;12.078;2023-06-10T10:07:10;97411.06;;;22.99;51.68
26083;BME280;13848;49.018;12.078;2023-06-10T10:09:38;97417.06;;;23.01;51.50
26083;BME280;13848;49.018;12.078;2023-06-10T10:12:08;97410.66;;;22.78;51.58
26083;BME280;13848;49.018;12.078;2023-06-10T10:14:35;97413.13;;;22.52;52.10
26083;BME280;13848;49.018;12.078;2023-06-10T10:17:04;97424.84;;;22.44;52.62
26083;BME280;13848;49.018;12.078;2023-06-10T10:19:31;97419.56;;;22.34;52.82
26083;BME280;13848;49.018;12.078;2023-06-10T10:22:01;97418.13;;;22.37;53.01
26083;BME280;13848;49.018;12.078;2023-06-10T10:24:33;97413.25;;;22.34;52.84
26083;BME280;13848;49.018;12.078;2023-06-10T10:27:01;97426.44;;;22.31;53.08
26083;BME280;13848;49.018;12.078;2023-06-10T10:29:34;97415.97;;;22.20;53.78
26083;BME280;13848;49.018;12.078;2023-06-10T10:32:03;97420.59;;;22.05;54.34
26083;BME280;13848;49.018;12.078;2023-06-10T10:34:37;97414.22;;;21.77;55.00
26083;BME280;13848;49.018;12.078;2023-06-10T10:37:08;97411.31;;;21.88;54.82
26083;BME280;13848;49.018;12.078;2023-06-10T10:39:34;97408.66;;;22.15;54.04
26083;BME280;13848;49.018;12.078;2023-06-10T10:42:03;97416.19;;;22.23;53.62
26083;BME280;13848;49.018;12.078;2023-06-10T10:44:30;97408.44;;;22.25;53.79
26083;BME280;13848;49.018;12.078;2023-06-10T10:47:02;97411.81;;;22.22;53.15
26083;BME280;13848;49.018;12.078;2023-06-10T10:49:28;97412.41;;;22.19;53.45
26083;BME280;13848;49.018;12.078;2023-06-10T10:51:56;97411.81;;;22.22;53.81
26083;BME280;13848;49.018;12.078;2023-06-10T10:54:28;97417.81;;;22.24;53.08
26083;BME280;13848;49.018;12.078;2023-06-10T10:57:12;97402.44;;;22.23;53.41
26083;BME280;13848;49.018;12.078;2023-06-10T10:59:59;97411.91;;;22.31;53.55
26083;BME280;13848;49.018;12.078;2023-06-10T11:02:36;97414.78;;;22.40;53.14
26083;BME280;13848;49.018;12.078;2023-06-10T11:05:03;97410.91;;;22.41;53.67
26083;BME280;13848;49.018;12.078;2023-06-10T11:07:31;97411.72;;;22.41;53.51
26083;BME280;13848;49.018;12.078;2023-06-10T11:09:58;97414.16;;;22.29;54.01
26083;BME280;13848;49.018;12.078;2023-06-10T11:12:26;97419.06;;;21.99;54.80
26083;BME280;13848;49.018;12.078;2023-06-10T11:15:05;97412.34;;;22.38;54.49
26083;BME280;13848;49.018;12.078;2023-06-10T11:17:31;97409.34;;;23.03;54.52
26083;BME280;13848;49.018;12.078;2023-06-10T11:19:58;97403.78;;;23.31;53.10
26083;BME280;13848;49.018;12.078;2023-06-10T11:22:24;97400.88;;;23.14;51.65
26083;BME280;13848;49.018;12.078;2023-06-10T11:24:50;97404.69;;;23.26;52.83
26083;BME280;13848;49.018;12.078;2023-06-10T11:27:21;97396.00;;;23.55;51.95
26083;BME280;13848;49.018;12.078;2023-06-10T11:30:18;97406.66;;;23.71;51.59
26083;BME280;13848;49.018;12.078;2023-06-10T11:32:44;97397.28;;;23.49;51.60
26083;BME280;13848;49.018;12.078;2023-06-10T11:35:12;97402.69;;;23.41;51.98
26083;BME280;13848;49.018;12.078;2023-06-10T11:37:38;97396.03;;;23.19;51.46
26083;BME280;13848;49.018;12.078;2023-06-10T11:40:06;97402.50;;;23.15;51.55
26083;BME280;13848;49.018;12.078;2023-06-10T11:42:33;97390.47;;;23.10;51.65
26083;BME280;13848;49.018;12.078;2023-06-10T11:45:00;97392.25;;;23.29;52.01
26083;BME280;13848;49.018;12.078;2023-06-10T11:47:26;97396.69;;;23.39;52.52
26083;BME280;13848;49.018;12.078;2023-06-10T11:49:56;97401.41;;;22.88;52.33
26083;BME280;13848;49.018;12.078;2023-06-10T11:52:26;97396.94;;;22.92;52.63
26083;BME280;13848;49.018;12.078;2023-06-10T11:54:53;97384.09;;;23.24;53.02
26083;BME280;13848;49.018;12.078;2023-06-10T11:57:19;97391.38;;;23.42;52.90
26083;BME280;13848;49.018;12.078;2023-06-10T11:59:45;97391.63;;;23.32;52.47
26083;BME280;13848;49.018;12.078;2023-06-10T12:02:16;97385.84;;;23.42;51.85
26083;BME280;13848;49.018;12.078;2023-06-10T12:04:42;97392.13;;;23.56;51.64
26083;BME280;13848;49.018;12.078;2023-06-10T12:07:08;97385.28;;;23.68;51.54
26083;BME280;13848;49.018;12.078;2023-06-10T12:09:34;97377.16;;;23.62;50.45
26083;BME280;13848;49.018;12.078;2023-06-10T12:12:02;97381.75;;;23.76;50.91
26083;BME280;13848;49.018;12.078;2023-06-10T12:14:53;97380.25;;;23.92;50.64
26083;BME280;13848;49.018;12.078;2023-06-10T12:17:22;97387.88;;;23.95;49.87
26083;BME280;13848;49.018;12.078;2023-06-10T12:19:48;97386.78;;;23.74;50.11
26083;BME280;13848;49.018;12.078;2023-06-10T12:22:14;97382.53;;;24.30;50.09
26083;BME280;13848;49.018;12.078;2023-06-10T12:24:44;97384.38;;;23.58;49.67
26083;BME280;13848;49.018;12.078;2023-06-10T12:27:11;97384.06;;;23.38;49.72
26083;BME280;13848;49.018;12.078;2023-06-10T12:29:37;97383.00;;;23.47;50.27
26083;BME280;13848;49.018;12.078;2023-06-10T12:32:04;97386.22;;;23.94;49.84
26083;BME280;13848;49.018;12.078;2023-06-10T12:34:34;97379.63;;;23.95;47.65
26083;BME280;13848;49.018;12.078;2023-06-10T12:37:00;97379.44;;;24.00;49.13
26083;BME280;13848;49.018;12.078;2023-06-10T12:39:27;97381.66;;;24.21;48.33
26083;BME280;13848;49.018;12.078;2023-06-10T12:41:53;97384.88;;;24.45;48.37
26083;BME280;13848;49.018;12.078;2023-06-10T12:44:28;97379.88;;;24.56;48.48
26083;BME280;13848;49.018;12.078;2023-06-10T12:46:54;97375.19;;;24.56;48.18
26083;BME280;13848;49.018;12.078;2023-06-10T12:49:20;97373.22;;;24.48;48.33